sensor_id;sensor_type;location;lat;lon;timestamp;P1;durP1;ratioP1;P2;durP2;ratioP2
35644;SDS011;21764;52.042;6.830;2023-06-24T00:02:44;15.38;;;10.35;;
35644;SDS011;21764;52.042;6.830;2023-06-24T00:07:45;13.35;;;10.40;;
35644;SDS011;21764;52.042;6.830;2023-06-24T00:12:47;17.23;;;10.57;;
35644;SDS011;21764;52.042;6.830;2023-06-24T00:17:47;14.30;;;11.20;;
35644;SDS011;21764;52.042;6.830;2023-06-24T00:22:49;13.07;;;10.82;;
35644;SDS011;21764;52.042;6.830;2023-06-24T00:27:49;14.02;;;10.23;;
35644;SDS011;21764;52.042;6.830;2023-06-24T00:32:50;15.52;;;10.52;;
35644;SDS011;21764;52.042;6.830;2023-06-24T00:37:50;15.82;;;11.75;;
35644;SDS011;21764;52.042;6.830;2023-06-24T00:43:11;16.50;;;12.23;;
35644;SDS011;21764;52.042;6.830;2023-06-24T00:48:12;13.27;;;11.30;;
35644;SDS011;21764;52.042;6.830;2023-06-24T00:53:12;16.27;;;12.07;;
35644;SDS011;21764;52.042;6.830;2023-06-24T00:58:13;14.20;;;11.52;;
35644;SDS011;21764;52.042;6.830;2023-06-24T01:03:16;21.70;;;12.57;;
35644;SDS011;21764;52.042;6.830;2023-06-24T01:08:16;16.63;;;12.35;;
35644;SDS011;21764;52.042;6.830;2023-06-24T01:13:19;15.88;;;11.93;;
35644;SDS011;21764;52.042;6.830;2023-06-24T01:35:08;17.88;;;12.43;;
35644;SDS011;21764;52.042;6.830;2023-06-24T01:40:18;14.82;;;12.63;;
35644;SDS011;21764;52.042;6.830;2023-06-24T01:45:42;17.80;;;14.40;;
35644;SDS011;21764;52.042;6.830;2023-06-24T01:51:03;23.20;;;15.13;;
35644;SDS011;21764;52.042;6.830;2023-06-24T01:56:10;20.92;;;13.98;;
35644;SDS011;21764;52.042;6.830;2023-06-24T02:01:14;17.33;;;13.77;;
35644;SDS011;21764;52.042;6.830;2023-06-24T02:06:15;19.73;;;14.07;;
35644;SDS011;21764;52.042;6.830;2023-06-24T02:11:18;21.33;;;13.80;;
35644;SDS011;21764;52.042;6.830;2023-06-24T02:16:20;20.58;;;13.10;;
35644;SDS011;21764;52.042;6.830;2023-06-24T02:21:21;18.52;;;13.05;;
35644;SDS011;21764;52.042;6.830;2023-06-24T02:26:24;18.23;;;12.77;;
35644;SDS011;21764;52.042;6.830;2023-06-24T02:31:25;16.30;;;12.15;;
35644;SDS011;21764;52.042;6.830;2023-06-24T02:36:26;22.83;;;14.23;;
35644;SDS011;21764;52.042;6.830;2023-06-24T02:41:27;15.73;;;11.95;;
35644;SDS011;21764;52.042;6.830;2023-06-24T02:46:28;21.38;;;12.05;;
35644;SDS011;21764;52.042;6.830;2023-06-24T02:51:30;14.95;;;12.43;;
35644;SDS011;21764;52.042;6.830;2023-06-24T02:56:32;16.40;;;12.90;;
35644;SDS011;21764;52.042;6.830;2023-06-24T03:01:33;17.73;;;13.25;;
35644;SDS011;21764;52.042;6.830;2023-06-24T03:06:38;18.70;;;13.45;;
35644;SDS011;21764;52.042;6.830;2023-06-24T03:11:43;22.48;;;13.02;;
35644;SDS011;21764;52.042;6.830;2023-06-24T03:16:44;16.97;;;13.73;;
35644;SDS011;21764;52.042;6.830;2023-06-24T03:21:45;20.27;;;14.93;;
35644;SDS011;21764;52.042;6.830;2023-06-24T03:26:46;23.48;;;15.88;;
35644;SDS011;21764;52.042;6.830;2023-06-24T03:31:47;23.65;;;17.08;;
35644;SDS011;21764;52.042;6.830;2023-06-24T03:36:48;24.52;;;16.92;;
35644;SDS011;21764;52.042;6.830;2023-06-24T03:41:48;19.52;;;13.98;;
35644;SDS011;21764;52.042;6.830;2023-06-24T03:46:49;22.88;;;14.30;;
35644;SDS011;21764;52.042;6.830;2023-06-24T03:51:50;25.20;;;15.15;;
35644;SDS011;21764;52.042;6.830;2023-06-24T03:56:50;24.63;;;15.38;;
35644;SDS011;21764;52.042;6.830;2023-06-24T04:01:51;19.63;;;15.52;;
35644;SDS011;21764;52.042;6.830;2023-06-24T04:06:52;21.70;;;14.45;;
35644;SDS011;21764;52.042;6.830;2023-06-24T04:11:52;25.02;;;14.95;;
35644;SDS011;21764;52.042;6.830;2023-06-24T04:16:53;23.02;;;14.65;;
35644;SDS011;21764;52.042;6.830;2023-06-24T04:21:53;22.27;;;14.73;;
35644;SDS011;21764;52.042;6.830;2023-06-24T04:26:54;20.70;;;14.90;;
35644;SDS011;21764;52.042;6.830;2023-06-24T04:31:55;19.52;;;14.00;;
35644;SDS011;21764;52.042;6.830;2023-06-24T04:36:56;21.52;;;14.65;;
35644;SDS011;21764;52.042;6.830;2023-06-24T04:41:56;20.67;;;14.57;;
35644;SDS011;21764;52.042;6.830;2023-06-24T04:46:57;25.23;;;15.10;;
35644;SDS011;21764;52.042;6.830;2023-06-24T04:52:01;19.83;;;13.05;;
35644;SDS011;21764;52.042;6.830;2023-06-24T05:02:06;15.55;;;11.77;;
35644;SDS011;21764;52.042;6.830;2023-06-24T05:07:06;15.80;;;12.02;;
35644;SDS011;21764;52.042;6.830;2023-06-24T05:12:07;17.38;;;11.63;;
35644;SDS011;21764;52.042;6.830;2023-06-24T05:17:08;16.95;;;11.75;;
35644;SDS011;21764;52.042;6.830;2023-06-24T05:22:09;18.85;;;13.07;;
35644;SDS011;21764;52.042;6.830;2023-06-24T05:27:12;14.73;;;11.50;;
35644;SDS011;21764;52.042;6.830;2023-06-24T05:32:13;18.63;;;12.00;;
35644;SDS011;21764;52.042;6.830;2023-06-24T05:37:14;14.07;;;11.40;;
35644;SDS011;21764;52.042;6.830;2023-06-24T05:42:14;15.93;;;11.73;;
35644;SDS011;21764;52.042;6.830;2023-06-24T05:47:15;17.13;;;12.07;;
35644;SDS011;21764;52.042;6.830;2023-06-24T05:52:16;19.38;;;13.00;;
35644;SDS011;21764;52.042;6.830;2023-06-24T05:57:16;23.05;;;12.25;;
35644;SDS011;21764;52.042;6.830;2023-06-24T06:02:17;16.13;;;12.52;;
35644;SDS011;21764;52.042;6.830;2023-06-24T06:07:17;18.63;;;12.55;;
35644;SDS011;21764;52.042;6.830;2023-06-24T06:12:18;17.98;;;13.52;;
35644;SDS011;21764;52.042;6.830;2023-06-24T06:17:19;21.15;;;13.32;;
35644;SDS011;21764;52.042;6.830;2023-06-24T06:22:19;20.77;;;13.68;;
35644;SDS011;21764;52.042;6.830;2023-06-24T06:27:20;21.38;;;13.20;;
35644;SDS011;21764;52.042;6.830;2023-06-24T06:32:21;18.83;;;13.68;;
35644;SDS011;21764;52.042;6.830;2023-06-24T06:37:22;19.30;;;13.57;;
35644;SDS011;21764;52.042;6.830;2023-06-24T06:42:22;21.38;;;13.43;;
35644;SDS011;21764;52.042;6.830;2023-06-24T06:47:23;23.02;;;13.90;;
35644;SDS011;21764;52.042;6.830;2023-06-24T06:52:24;16.42;;;12.77;;
35644;SDS011;21764;52.042;6.830;2023-06-24T06:57:24;19.10;;;12.63;;
35644;SDS011;21764;52.042;6.830;2023-06-24T07:02:25;22.17;;;14.25;;
35644;SDS011;21764;52.042;6.830;2023-06-24T07:07:26;22.75;;;13.82;;
35644;SDS011;21764;52.042;6.830;2023-06-24T07:12:26;19.17;;;14.13;;
35644;SDS011;21764;52.042;6.830;2023-06-24T07:17:27;21.08;;;14.30;;
35644;SDS011;21764;52.042;6.830;2023-06-24T07:22:27;18.77;;;14.20;;
35644;SDS011;21764;52.042;6.830;2023-06-24T07:27:30;20.93;;;13.90;;
35644;SDS011;21764;52.042;6.830;2023-06-24T07:32:31;17.58;;;12.98;;
35644;SDS011;21764;52.042;6.830;2023-06-24T07:37:31;21.55;;;12.70;;
35644;SDS011;21764;52.042;6.830;2023-06-24T07:42:32;14.95;;;12.30;;
35644;SDS011;21764;52.042;6.830;2023-06-24T07:47:32;14.60;;;12.02;;
35644;SDS011;21764;52.042;6.830;2023-06-24T07:52:33;16.13;;;12.27;;
35644;SDS011;21764;52.042;6.830;2023-06-24T07:57:34;17.67;;;11.43;;
35644;SDS011;21764;52.042;6.830;2023-06-24T08:02:34;19.35;;;11.57;;
35644;SDS011;21764;52.042;6.830;2023-06-24T08:07:35;15.40;;;11.57;;
35644;SDS011;21764;52.042;6.830;2023-06-24T08:12:37;20.20;;;13.25;;
35644;SDS011;21764;52.042;6.830;2023-06-24T08:17:38;17.58;;;12.82;;
35644;SDS011;21764;52.042;6.830;2023-06-24T08:22:38;21.57;;;14.00;;
35644;SDS011;21764;52.042;6.830;2023-06-24T08:27:39;18.30;;;13.20;;
35644;SDS011;21764;52.042;6.830;2023-06-24T08:32:40;19.97;;;12.53;;
35644;SDS011;21764;52.042;6.830;2023-06-24T08:37:41;13.10;;;10.83;;
35644;SDS011;21764;52.042;6.830;2023-06-24T08:42:42;15.33;;;10.77;;
35644;SDS011;21764;52.042;6.830;2023-06-24T08:47:43;14.55;;;10.77;;
35644;SDS011;21764;52.042;6.830;2023-06-24T08:52:48;16.75;;;10.77;;
35644;SDS011;21764;52.042;6.830;2023-06-24T08:57:52;16.13;;;12.27;;
35644;SDS011;21764;52.042;6.830;2023-06-24T09:02:52;17.40;;;10.97;;
35644;SDS011;21764;52.042;6.830;2023-06-24T09:07:53;16.53;;;10.30;;
35644;SDS011;21764;52.042;6.830;2023-06-24T09:12:54;11.55;;;10.10;;
35644;SDS011;21764;52.042;6.830;2023-06-24T09:17:54;10.30;;;9.05;;
35644;SDS011;21764;52.042;6.830;2023-06-24T09:28:00;9.35;;;8.32;;
35644;SDS011;21764;52.042;6.830;2023-06-24T09:33:01;10.73;;;8.18;;
35644;SDS011;21764;52.042;6.830;2023-06-24T09:38:02;12.13;;;10.35;;
35644;SDS011;21764;52.042;6.830;2023-06-24T09:48:03;19.40;;;17.47;;
35644;SDS011;21764;52.042;6.830;2023-06-24T09:53:04;9.70;;;8.23;;
35644;SDS011;21764;52.042;6.830;2023-06-24T09:58:06;10.93;;;6.93;;
35644;SDS011;21764;52.042;6.830;2023-06-24T10:08:07;11.17;;;8.33;;
35644;SDS011;21764;52.042;6.830;2023-06-24T10:13:09;12.45;;;8.38;;
35644;SDS011;21764;52.042;6.830;2023-06-24T10:23:30;7.68;;;5.45;;
35644;SDS011;21764;52.042;6.830;2023-06-24T10:39:36;6.57;;;3.72;;
35644;SDS011;21764;52.042;6.830;2023-06-24T10:44:47;4.95;;;3.08;;
35644;SDS011;21764;52.042;6.830;2023-06-24T10:49:48;6.10;;;3.70;;
35644;SDS011;21764;52.042;6.830;2023-06-24T10:54:49;6.55;;;4.80;;
35644;SDS011;21764;52.042;6.830;2023-06-24T10:59:52;4.63;;;3.93;;
35644;SDS011;21764;52.042;6.830;2023-06-24T11:10:00;10.43;;;6.13;;
35644;SDS011;21764;52.042;6.830;2023-06-24T11:15:05;6.80;;;4.60;;
35644;SDS011;21764;52.042;6.830;2023-06-24T11:20:08;6.47;;;5.20;;
35644;SDS011;21764;52.042;6.830;2023-06-24T11:25:17;7.28;;;4.38;;
35644;SDS011;21764;52.042;6.830;2023-06-24T11:30:19;5.05;;;4.00;;
35644;SDS011;21764;52.042;6.830;2023-06-24T11:35:20;5.90;;;4.07;;
35644;SDS011;21764;52.042;6.830;2023-06-24T11:40:21;5.57;;;4.18;;
35644;SDS011;21764;52.042;6.830;2023-06-24T11:45:21;10.60;;;4.70;;
35644;SDS011;21764;52.042;6.830;2023-06-24T11:50:26;5.18;;;3.75;;
35644;SDS011;21764;52.042;6.830;2023-06-24T11:55:28;5.40;;;3.30;;
35644;SDS011;21764;52.042;6.830;2023-06-24T12:00:32;6.60;;;3.67;;
35644;SDS011;21764;52.042;6.830;2023-06-24T12:05:36;6.88;;;3.78;;
35644;SDS011;21764;52.042;6.830;2023-06-24T12:10:37;6.65;;;3.40;;
35644;SDS011;21764;52.042;6.830;2023-06-24T12:15:38;8.82;;;6.93;;
35644;SDS011;21764;52.042;6.830;2023-06-24T12:20:39;11.23;;;4.43;;
35644;SDS011;21764;52.042;6.830;2023-06-24T12:25:41;8.60;;;5.10;;
35644;SDS011;21764;52.042;6.830;2023-06-24T12:30:41;8.88;;;6.30;;
35644;SDS011;21764;52.042;6.830;2023-06-24T12:35:42;11.65;;;6.53;;
35644;SDS011;21764;52.042;6.830;2023-06-24T12:40:46;8.43;;;5.53;;
35644;SDS011;21764;52.042;6.830;2023-06-24T12:45:48;11.00;;;6.97;;
35644;SDS011;21764;52.042;6.830;2023-06-24T12:50:48;7.32;;;6.13;;
35644;SDS011;21764;52.042;6.830;2023-06-24T12:55:53;8.30;;;5.68;;
35644;SDS011;21764;52.042;6.830;2023-06-24T13:00:55;10.00;;;7.47;;
35644;SDS011;21764;52.042;6.830;2023-06-24T13:05:55;17.83;;;7.65;;
35644;SDS011;21764;52.042;6.830;2023-06-24T13:10:57;10.45;;;6.13;;
35644;SDS011;21764;52.042;6.830;2023-06-24T13:15:58;12.88;;;6.28;;
35644;SDS011;21764;52.042;6.830;2023-06-24T13:20:58;7.80;;;5.70;;
35644;SDS011;21764;52.042;6.830;2023-06-24T13:25:59;9.75;;;6.00;;
35644;SDS011;21764;52.042;6.830;2023-06-24T13:30:59;10.60;;;5.38;;
35644;SDS011;21764;52.042;6.830;2023-06-24T13:36:00;10.38;;;5.07;;
35644;SDS011;21764;52.042;6.830;2023-06-24T13:41:02;8.95;;;4.97;;
35644;SDS011;21764;52.042;6.830;2023-06-24T13:46:03;6.43;;;4.40;;
35644;SDS011;21764;52.042;6.830;2023-06-24T13:51:04;6.07;;;4.25;;
35644;SDS011;21764;52.042;6.830;2023-06-24T13:56:06;11.20;;;4.80;;
35644;SDS011;21764;52.042;6.830;2023-06-24T14:01:08;7.65;;;4.47;;
35644;SDS011;21764;52.042;6.830;2023-06-24T14:06:09;5.13;;;4.07;;
35644;SDS011;21764;52.042;6.830;2023-06-24T14:11:10;6.57;;;4.00;;
35644;SDS011;21764;52.042;6.830;2023-06-24T14:16:11;5.75;;;3.90;;
35644;SDS011;21764;52.042;6.830;2023-06-24T14:21:12;5.90;;;3.75;;
35644;SDS011;21764;52.042;6.830;2023-06-24T14:26:12;4.47;;;3.70;;
35644;SDS011;21764;52.042;6.830;2023-06-24T14:31:13;6.60;;;3.92;;
35644;SDS011;21764;52.042;6.830;2023-06-24T14:36:14;4.88;;;3.58;;
35644;SDS011;21764;52.042;6.830;2023-06-24T14:41:15;7.15;;;3.80;;
35644;SDS011;21764;52.042;6.830;2023-06-24T14:46:15;5.55;;;3.88;;
35644;SDS011;21764;52.042;6.830;2023-06-24T14:51:16;5.70;;;3.53;;
35644;SDS011;21764;52.042;6.830;2023-06-24T14:56:17;6.35;;;3.85;;
35644;SDS011;21764;52.042;6.830;2023-06-24T15:01:17;5.07;;;3.50;;
35644;SDS011;21764;52.042;6.830;2023-06-24T15:06:18;9.13;;;4.00;;
35644;SDS011;21764;52.042;6.830;2023-06-24T15:11:19;5.47;;;4.05;;
35644;SDS011;21764;52.042;6.830;2023-06-24T15:16:19;8.57;;;3.97;;
35644;SDS011;21764;52.042;6.830;2023-06-24T15:21:20;6.32;;;4.15;;
35644;SDS011;21764;52.042;6.830;2023-06-24T15:26:21;8.80;;;4.57;;
35644;SDS011;21764;52.042;6.830;2023-06-24T15:31:21;5.97;;;3.72;;
35644;SDS011;21764;52.042;6.830;2023-06-24T15:36:22;6.95;;;3.90;;
35644;SDS011;21764;52.042;6.830;2023-06-24T15:41:26;8.05;;;4.45;;
35644;SDS011;21764;52.042;6.830;2023-06-24T15:46:27;6.63;;;5.35;;
35644;SDS011;21764;52.042;6.830;2023-06-24T15:51:27;5.05;;;4.00;;
35644;SDS011;21764;52.042;6.830;2023-06-24T15:56:28;5.45;;;3.80;;
35644;SDS011;21764;52.042;6.830;2023-06-24T16:01:29;4.40;;;3.53;;
35644;SDS011;21764;52.042;6.830;2023-06-24T16:06:29;17.45;;;11.35;;
35644;SDS011;21764;52.042;6.830;2023-06-24T16:11:31;5.97;;;4.30;;
35644;SDS011;21764;52.042;6.830;2023-06-24T16:16:32;12.05;;;6.72;;
35644;SDS011;21764;52.042;6.830;2023-06-24T16:21:33;9.13;;;4.45;;
35644;SDS011;21764;52.042;6.830;2023-06-24T16:26:33;7.20;;;4.28;;
35644;SDS011;21764;52.042;6.830;2023-06-24T16:31:34;4.80;;;3.83;;
35644;SDS011;21764;52.042;6.830;2023-06-24T16:36:35;4.88;;;3.88;;
35644;SDS011;21764;52.042;6.830;2023-06-24T16:41:35;5.47;;;4.18;;
35644;SDS011;21764;52.042;6.830;2023-06-24T16:46:36;10.68;;;3.75;;
35644;SDS011;21764;52.042;6.830;2023-06-24T16:51:37;7.93;;;4.10;;
35644;SDS011;21764;52.042;6.830;2023-06-24T16:56:37;5.68;;;3.85;;
35644;SDS011;21764;52.042;6.830;2023-06-24T17:01:38;5.82;;;4.03;;
35644;SDS011;21764;52.042;6.830;2023-06-24T17:06:40;4.75;;;3.92;;
35644;SDS011;21764;52.042;6.830;2023-06-24T17:11:41;7.13;;;5.63;;
35644;SDS011;21764;52.042;6.830;2023-06-24T17:16:41;5.57;;;3.80;;
35644;SDS011;21764;52.042;6.830;2023-06-24T17:21:42;5.10;;;4.13;;
35644;SDS011;21764;52.042;6.830;2023-06-24T17:26:43;6.10;;;4.63;;
35644;SDS011;21764;52.042;6.830;2023-06-24T17:31:44;6.13;;;4.25;;
35644;SDS011;21764;52.042;6.830;2023-06-24T17:36:44;5.45;;;4.03;;
35644;SDS011;21764;52.042;6.830;2023-06-24T17:41:45;8.82;;;4.63;;
35644;SDS011;21764;52.042;6.830;2023-06-24T17:46:46;7.18;;;4.35;;
35644;SDS011;21764;52.042;6.830;2023-06-24T17:51:46;6.53;;;4.47;;
35644;SDS011;21764;52.042;6.830;2023-06-24T17:56:47;7.28;;;4.32;;
35644;SDS011;21764;52.042;6.830;2023-06-24T18:01:48;8.65;;;4.60;;
35644;SDS011;21764;52.042;6.830;2023-06-24T18:06:49;6.32;;;4.15;;
35644;SDS011;21764;52.042;6.830;2023-06-24T18:11:49;7.88;;;4.30;;
35644;SDS011;21764;52.042;6.830;2023-06-24T18:16:50;6.40;;;4.30;;
35644;SDS011;21764;52.042;6.830;2023-06-24T18:21:52;7.65;;;4.75;;
35644;SDS011;21764;52.042;6.830;2023-06-24T18:26:52;6.72;;;4.68;;
35644;SDS011;21764;52.042;6.830;2023-06-24T18:31:53;5.00;;;4.32;;
35644;SDS011;21764;52.042;6.830;2023-06-24T18:36:54;7.25;;;4.35;;
35644;SDS011;21764;52.042;6.830;2023-06-24T18:41:54;7.57;;;4.57;;
35644;SDS011;21764;52.042;6.830;2023-06-24T18:46:55;9.25;;;4.85;;
35644;SDS011;21764;52.042;6.830;2023-06-24T18:51:56;11.98;;;5.47;;
35644;SDS011;21764;52.042;6.830;2023-06-24T18:56:56;15.30;;;5.30;;
35644;SDS011;21764;52.042;6.830;2023-06-24T19:01:57;10.48;;;5.10;;
35644;SDS011;21764;52.042;6.830;2023-06-24T19:06:58;7.97;;;5.68;;
35644;SDS011;21764;52.042;6.830;2023-06-24T19:11:59;12.23;;;5.90;;
35644;SDS011;21764;52.042;6.830;2023-06-24T19:17:00;13.10;;;5.60;;
35644;SDS011;21764;52.042;6.830;2023-06-24T19:22:00;7.90;;;5.97;;
35644;SDS011;21764;52.042;6.830;2023-06-24T19:27:03;9.48;;;6.32;;
35644;SDS011;21764;52.042;6.830;2023-06-24T19:32:04;10.45;;;6.90;;
35644;SDS011;21764;52.042;6.830;2023-06-24T19:37:05;6.72;;;5.40;;
35644;SDS011;21764;52.042;6.830;2023-06-24T19:42:06;12.48;;;6.10;;
35644;SDS011;21764;52.042;6.830;2023-06-24T19:47:07;10.20;;;6.55;;
35644;SDS011;21764;52.042;6.830;2023-06-24T19:52:07;10.00;;;6.38;;
35644;SDS011;21764;52.042;6.830;2023-06-24T19:57:08;14.07;;;6.75;;
35644;SDS011;21764;52.042;6.830;2023-06-24T20:02:10;9.05;;;7.18;;
35644;SDS011;21764;52.042;6.830;2023-06-24T20:07:11;9.10;;;6.47;;
35644;SDS011;21764;52.042;6.830;2023-06-24T20:12:12;14.20;;;6.75;;
35644;SDS011;21764;52.042;6.830;2023-06-24T20:17:12;7.82;;;5.53;;
35644;SDS011;21764;52.042;6.830;2023-06-24T20:22:13;10.90;;;6.50;;
35644;SDS011;21764;52.042;6.830;2023-06-24T20:27:14;10.90;;;7.28;;
35644;SDS011;21764;52.042;6.830;2023-06-24T20:32:14;7.68;;;6.25;;
35644;SDS011;21764;52.042;6.830;2023-06-24T20:37:16;11.70;;;6.82;;
35644;SDS011;21764;52.042;6.830;2023-06-24T20:42:17;10.15;;;6.57;;
35644;SDS011;21764;52.042;6.830;2023-06-24T20:47:18;52.95;;;36.58;;
35644;SDS011;21764;52.042;6.830;2023-06-24T20:52:18;10.82;;;7.30;;
35644;SDS011;21764;52.042;6.830;2023-06-24T20:57:19;9.40;;;7.32;;
35644;SDS011;21764;52.042;6.830;2023-06-24T21:02:20;13.63;;;7.80;;
35644;SDS011;21764;52.042;6.830;2023-06-24T21:07:20;9.60;;;7.30;;
35644;SDS011;21764;52.042;6.830;2023-06-24T21:12:21;10.25;;;7.78;;
35644;SDS011;21764;52.042;6.830;2023-06-24T21:17:22;15.57;;;9.15;;
35644;SDS011;21764;52.042;6.830;2023-06-24T21:22:23;13.48;;;8.63;;
35644;SDS011;21764;52.042;6.830;2023-06-24T21:27:23;15.32;;;9.27;;
35644;SDS011;21764;52.042;6.830;2023-06-24T21:32:24;16.13;;;11.05;;
35644;SDS011;21764;52.042;6.830;2023-06-24T21:37:25;17.40;;;10.63;;
35644;SDS011;21764;52.042;6.830;2023-06-24T21:42:25;17.33;;;11.82;;
35644;SDS011;21764;52.042;6.830;2023-06-24T21:47:26;19.33;;;11.55;;
35644;SDS011;21764;52.042;6.830;2023-06-24T21:52:27;15.55;;;9.75;;
35644;SDS011;21764;52.042;6.830;2023-06-24T21:57:27;12.02;;;8.85;;
35644;SDS011;21764;52.042;6.830;2023-06-24T22:02:28;12.38;;;9.15;;
35644;SDS011;21764;52.042;6.830;2023-06-24T22:07:28;13.85;;;8.27;;
35644;SDS011;21764;52.042;6.830;2023-06-24T22:12:29;14.32;;;8.57;;
35644;SDS011;21764;52.042;6.830;2023-06-24T22:17:30;9.88;;;7.75;;
35644;SDS011;21764;52.042;6.830;2023-06-24T22:22:30;14.75;;;8.38;;
35644;SDS011;21764;52.042;6.830;2023-06-24T22:27:31;16.20;;;8.85;;
35644;SDS011;21764;52.042;6.830;2023-06-24T22:32:33;14.57;;;9.52;;
35644;SDS011;21764;52.042;6.830;2023-06-24T22:37:34;8.90;;;8.00;;
35644;SDS011;21764;52.042;6.830;2023-06-24T22:42:38;10.43;;;9.07;;
35644;SDS011;21764;52.042;6.830;2023-06-24T22:47:39;13.90;;;9.60;;
35644;SDS011;21764;52.042;6.830;2023-06-24T22:52:39;14.40;;;10.02;;
35644;SDS011;21764;52.042;6.830;2023-06-24T22:57:40;12.98;;;10.10;;
35644;SDS011;21764;52.042;6.830;2023-06-24T23:02:41;16.95;;;10.07;;
35644;SDS011;21764;52.042;6.830;2023-06-24T23:07:42;12.93;;;10.20;;
35644;SDS011;21764;52.042;6.830;2023-06-24T23:12:43;17.13;;;10.48;;
35644;SDS011;21764;52.042;6.830;2023-06-24T23:17:48;19.30;;;10.98;;
35644;SDS011;21764;52.042;6.830;2023-06-24T23:22:49;17.45;;;11.95;;
35644;SDS011;21764;52.042;6.830;2023-06-24T23:27:55;19.98;;;13.05;;
35644;SDS011;21764;52.042;6.830;2023-06-24T23:32:56;22.13;;;12.27;;
35644;SDS011;21764;52.042;6.830;2023-06-24T23:38:00;18.58;;;13.40;;
35644;SDS011;21764;52.042;6.830;2023-06-24T23:43:00;20.17;;;13.43;;
35644;SDS011;21764;52.042;6.830;2023-06-24T23:48:03;18.65;;;12.90;;
35644;SDS011;21764;52.042;6.830;2023-06-24T23:53:04;18.27;;;12.40;;
35644;SDS011;21764;52.042;6.830;2023-06-24T23:58:05;16.77;;;12.52;;
